sensor_id;sensor_type;location;lat;lon;timestamp;pressure;altitude;pressure_sealevel;temperature
75822;BMP180;64454;51.984;9.838;2024-02-26T00:02:08;98819.00;;;2.30
75822;BMP180;64454;51.984;9.838;2024-02-26T00:04:34;98817.00;;;2.30
75822;BMP180;64454;51.984;9.838;2024-02-26T00:07:01;98817.00;;;2.50
75822;BMP180;64454;51.984;9.838;2024-02-26T00:09:27;98819.00;;;2.60
75822;BMP180;64454;51.984;9.838;2024-02-26T00:11:53;98814.00;;;2.40
75822;BMP180;64454;51.984;9.838;2024-02-26T00:14:20;98819.00;;;2.30
75822;BMP180;64454;51.984;9.838;2024-02-26T00:16:47;98816.00;;;2.10
75822;BMP180;64454;51.984;9.838;2024-02-26T00:19:13;98820.00;;;2.40
75822;BMP180;64454;51.984;9.838;2024-02-26T00:21:40;98830.00;;;2.10
75822;BMP180;64454;51.984;9.838;2024-02-26T00:24:07;98822.00;;;2.20
75822;BMP180;64454;51.984;9.838;2024-02-26T00:26:34;98817.00;;;2.20
75822;BMP180;64454;51.984;9.838;2024-02-26T00:29:00;98815.00;;;2.20
75822;BMP180;64454;51.984;9.838;2024-02-26T00:31:26;98816.00;;;2.30
75822;BMP180;64454;51.984;9.838;2024-02-26T00:33:53;98810.00;;;2.20
75822;BMP180;64454;51.984;9.838;2024-02-26T00:36:19;98811.00;;;2.20
75822;BMP180;64454;51.984;9.838;2024-02-26T00:38:45;98811.00;;;2.10
75822;BMP180;64454;51.984;9.838;2024-02-26T00:41:16;98807.00;;;2.20
75822;BMP180;64454;51.984;9.838;2024-02-26T00:43:42;98804.00;;;2.20
75822;BMP180;64454;51.984;9.838;2024-02-26T00:46:08;98810.00;;;2.00
75822;BMP180;64454;51.984;9.838;2024-02-26T00:48:35;98812.00;;;2.10
75822;BMP180;64454;51.984;9.838;2024-02-26T00:51:02;98814.00;;;2.10
75822;BMP180;64454;51.984;9.838;2024-02-26T00:53:30;98811.00;;;1.90
75822;BMP180;64454;51.984;9.838;2024-02-26T00:55:57;98803.00;;;2.20
75822;BMP180;64454;51.984;9.838;2024-02-26T00:58:24;98806.00;;;2.00
75822;BMP180;64454;51.984;9.838;2024-02-26T01:00:51;98804.00;;;2.10
75822;BMP180;64454;51.984;9.838;2024-02-26T01:03:17;98815.00;;;2.00
75822;BMP180;64454;51.984;9.838;2024-02-26T01:05:43;98818.00;;;1.90
75822;BMP180;64454;51.984;9.838;2024-02-26T01:08:10;98820.00;;;2.10
75822;BMP180;64454;51.984;9.838;2024-02-26T01:10:36;98823.00;;;2.00
75822;BMP180;64454;51.984;9.838;2024-02-26T01:13:03;98818.00;;;2.20
75822;BMP180;64454;51.984;9.838;2024-02-26T01:15:29;98820.00;;;2.20
75822;BMP180;64454;51.984;9.838;2024-02-26T01:17:55;98817.00;;;2.10
75822;BMP180;64454;51.984;9.838;2024-02-26T01:20:21;98816.00;;;2.10
75822;BMP180;64454;51.984;9.838;2024-02-26T01:22:47;98814.00;;;1.80
75822;BMP180;64454;51.984;9.838;2024-02-26T01:25:14;98808.00;;;1.90
75822;BMP180;64454;51.984;9.838;2024-02-26T01:27:41;98810.00;;;1.70
75822;BMP180;64454;51.984;9.838;2024-02-26T01:30:10;98802.00;;;2.00
75822;BMP180;64454;51.984;9.838;2024-02-26T01:32:36;98805.00;;;1.80
75822;BMP180;64454;51.984;9.838;2024-02-26T01:35:03;98806.00;;;1.90
75822;BMP180;64454;51.984;9.838;2024-02-26T01:37:30;98802.00;;;1.80
75822;BMP180;64454;51.984;9.838;2024-02-26T01:39:56;98795.00;;;1.80
75822;BMP180;64454;51.984;9.838;2024-02-26T01:42:23;98796.00;;;1.90
75822;BMP180;64454;51.984;9.838;2024-02-26T01:44:49;98799.00;;;2.10
75822;BMP180;64454;51.984;9.838;2024-02-26T01:47:15;98787.00;;;2.00
75822;BMP180;64454;51.984;9.838;2024-02-26T01:49:42;98787.00;;;2.00
75822;BMP180;64454;51.984;9.838;2024-02-26T01:52:09;98794.00;;;1.80
75822;BMP180;64454;51.984;9.838;2024-02-26T01:54:37;98791.00;;;1.90
75822;BMP180;64454;51.984;9.838;2024-02-26T01:57:05;98798.00;;;1.90
75822;BMP180;64454;51.984;9.838;2024-02-26T01:59:34;98792.00;;;1.70
75822;BMP180;64454;51.984;9.838;2024-02-26T02:02:03;98791.00;;;1.70
75822;BMP180;64454;51.984;9.838;2024-02-26T02:04:31;98794.00;;;1.90
75822;BMP180;64454;51.984;9.838;2024-02-26T02:06:59;98794.00;;;1.80
75822;BMP180;64454;51.984;9.838;2024-02-26T02:09:27;98791.00;;;1.80
75822;BMP180;64454;51.984;9.838;2024-02-26T02:11:54;98798.00;;;2.10
75822;BMP180;64454;51.984;9.838;2024-02-26T02:14:20;98799.00;;;1.60
75822;BMP180;64454;51.984;9.838;2024-02-26T02:16:47;98800.00;;;1.70
75822;BMP180;64454;51.984;9.838;2024-02-26T02:19:13;98799.00;;;1.70
75822;BMP180;64454;51.984;9.838;2024-02-26T02:21:40;98802.00;;;1.60
75822;BMP180;64454;51.984;9.838;2024-02-26T02:24:06;98803.00;;;1.50
75822;BMP180;64454;51.984;9.838;2024-02-26T02:26:33;98796.00;;;1.70
75822;BMP180;64454;51.984;9.838;2024-02-26T02:29:00;98810.00;;;1.80
75822;BMP180;64454;51.984;9.838;2024-02-26T02:31:26;98803.00;;;1.70
75822;BMP180;64454;51.984;9.838;2024-02-26T02:33:53;98811.00;;;1.70
75822;BMP180;64454;51.984;9.838;2024-02-26T02:36:19;98806.00;;;1.90
75822;BMP180;64454;51.984;9.838;2024-02-26T02:38:50;98806.00;;;1.70
75822;BMP180;64454;51.984;9.838;2024-02-26T02:41:16;98800.00;;;1.90
75822;BMP180;64454;51.984;9.838;2024-02-26T02:43:43;98807.00;;;1.80
75822;BMP180;64454;51.984;9.838;2024-02-26T02:46:09;98793.00;;;1.70
75822;BMP180;64454;51.984;9.838;2024-02-26T02:48:37;98803.00;;;1.90
75822;BMP180;64454;51.984;9.838;2024-02-26T02:51:04;98801.00;;;1.50
75822;BMP180;64454;51.984;9.838;2024-02-26T02:53:30;98809.00;;;1.30
75822;BMP180;64454;51.984;9.838;2024-02-26T02:55:57;98802.00;;;1.50
75822;BMP180;64454;51.984;9.838;2024-02-26T02:58:23;98809.00;;;1.80
75822;BMP180;64454;51.984;9.838;2024-02-26T03:00:49;98807.00;;;2.10
75822;BMP180;64454;51.984;9.838;2024-02-26T03:03:15;98796.00;;;2.00
75822;BMP180;64454;51.984;9.838;2024-02-26T03:05:41;98797.00;;;2.10
75822;BMP180;64454;51.984;9.838;2024-02-26T03:08:08;98804.00;;;1.90
75822;BMP180;64454;51.984;9.838;2024-02-26T03:10:34;98815.00;;;1.70
75822;BMP180;64454;51.984;9.838;2024-02-26T03:13:01;98812.00;;;1.80
75822;BMP180;64454;51.984;9.838;2024-02-26T03:15:28;98814.00;;;1.80
75822;BMP180;64454;51.984;9.838;2024-02-26T03:17:54;98809.00;;;1.80
75822;BMP180;64454;51.984;9.838;2024-02-26T03:20:20;98815.00;;;2.10
75822;BMP180;64454;51.984;9.838;2024-02-26T03:22:46;98814.00;;;2.10
75822;BMP180;64454;51.984;9.838;2024-02-26T03:25:12;98806.00;;;2.10
75822;BMP180;64454;51.984;9.838;2024-02-26T03:27:38;98810.00;;;2.00
75822;BMP180;64454;51.984;9.838;2024-02-26T03:30:07;98812.00;;;2.10
75822;BMP180;64454;51.984;9.838;2024-02-26T03:32:33;98811.00;;;2.20
75822;BMP180;64454;51.984;9.838;2024-02-26T03:34:59;98814.00;;;2.30
75822;BMP180;64454;51.984;9.838;2024-02-26T03:37:25;98814.00;;;2.10
75822;BMP180;64454;51.984;9.838;2024-02-26T03:39:52;98819.00;;;2.00
75822;BMP180;64454;51.984;9.838;2024-02-26T03:42:18;98815.00;;;1.70
75822;BMP180;64454;51.984;9.838;2024-02-26T03:44:45;98804.00;;;2.00
75822;BMP180;64454;51.984;9.838;2024-02-26T03:47:11;98812.00;;;2.20
75822;BMP180;64454;51.984;9.838;2024-02-26T03:49:37;98807.00;;;2.10
75822;BMP180;64454;51.984;9.838;2024-02-26T03:52:04;98801.00;;;2.00
75822;BMP180;64454;51.984;9.838;2024-02-26T03:54:30;98809.00;;;2.30
75822;BMP180;64454;51.984;9.838;2024-02-26T03:56:56;98801.00;;;2.20
75822;BMP180;64454;51.984;9.838;2024-02-26T03:59:22;98814.00;;;2.20
75822;BMP180;64454;51.984;9.838;2024-02-26T04:01:50;98811.00;;;2.10
75822;BMP180;64454;51.984;9.838;2024-02-26T04:04:17;98816.00;;;2.00
75822;BMP180;64454;51.984;9.838;2024-02-26T04:06:44;98814.00;;;2.20
75822;BMP180;64454;51.984;9.838;2024-02-26T04:09:11;98816.00;;;2.30
75822;BMP180;64454;51.984;9.838;2024-02-26T04:11:37;98815.00;;;2.40
75822;BMP180;64454;51.984;9.838;2024-02-26T04:14:04;98820.00;;;2.50
75822;BMP180;64454;51.984;9.838;2024-02-26T04:16:31;98823.00;;;2.50
75822;BMP180;64454;51.984;9.838;2024-02-26T04:18:57;98822.00;;;2.30
75822;BMP180;64454;51.984;9.838;2024-02-26T04:21:24;98817.00;;;2.30
75822;BMP180;64454;51.984;9.838;2024-02-26T04:23:50;98821.00;;;2.30
75822;BMP180;64454;51.984;9.838;2024-02-26T04:26:16;98829.00;;;2.30
75822;BMP180;64454;51.984;9.838;2024-02-26T04:28:42;98833.00;;;1.80
75822;BMP180;64454;51.984;9.838;2024-02-26T04:31:09;98828.00;;;2.10
75822;BMP180;64454;51.984;9.838;2024-02-26T04:33:35;98838.00;;;2.10
75822;BMP180;64454;51.984;9.838;2024-02-26T04:36:01;98832.00;;;2.30
75822;BMP180;64454;51.984;9.838;2024-02-26T04:38:27;98830.00;;;2.30
75822;BMP180;64454;51.984;9.838;2024-02-26T04:40:53;98830.00;;;2.20
75822;BMP180;64454;51.984;9.838;2024-02-26T04:43:20;98844.00;;;2.40
75822;BMP180;64454;51.984;9.838;2024-02-26T04:45:46;98841.00;;;2.30
75822;BMP180;64454;51.984;9.838;2024-02-26T04:48:12;98844.00;;;2.30
75822;BMP180;64454;51.984;9.838;2024-02-26T04:50:38;98843.00;;;2.30
75822;BMP180;64454;51.984;9.838;2024-02-26T04:53:04;98846.00;;;2.30
75822;BMP180;64454;51.984;9.838;2024-02-26T04:55:31;98843.00;;;2.50
75822;BMP180;64454;51.984;9.838;2024-02-26T04:57:57;98840.00;;;2.40
75822;BMP180;64454;51.984;9.838;2024-02-26T05:00:23;98850.00;;;2.40
75822;BMP180;64454;51.984;9.838;2024-02-26T05:02:49;98847.00;;;2.30
75822;BMP180;64454;51.984;9.838;2024-02-26T05:05:15;98855.00;;;2.40
75822;BMP180;64454;51.984;9.838;2024-02-26T05:07:42;98852.00;;;2.50
75822;BMP180;64454;51.984;9.838;2024-02-26T05:10:09;98848.00;;;2.70
75822;BMP180;64454;51.984;9.838;2024-02-26T05:12:36;98843.00;;;2.70
75822;BMP180;64454;51.984;9.838;2024-02-26T05:15:02;98850.00;;;3.20
75822;BMP180;64454;51.984;9.838;2024-02-26T05:17:29;98848.00;;;2.80
75822;BMP180;64454;51.984;9.838;2024-02-26T05:19:55;98842.00;;;2.70
75822;BMP180;64454;51.984;9.838;2024-02-26T05:22:21;98840.00;;;2.80
75822;BMP180;64454;51.984;9.838;2024-02-26T05:24:47;98837.00;;;3.00
75822;BMP180;64454;51.984;9.838;2024-02-26T05:27:13;98836.00;;;2.90
75822;BMP180;64454;51.984;9.838;2024-02-26T05:29:40;98854.00;;;2.90
75822;BMP180;64454;51.984;9.838;2024-02-26T05:32:06;98855.00;;;3.00
75822;BMP180;64454;51.984;9.838;2024-02-26T05:34:32;98851.00;;;3.00
75822;BMP180;64454;51.984;9.838;2024-02-26T05:36:59;98847.00;;;3.10
75822;BMP180;64454;51.984;9.838;2024-02-26T05:39:25;98863.00;;;3.20
75822;BMP180;64454;51.984;9.838;2024-02-26T05:41:51;98877.00;;;2.90
75822;BMP180;64454;51.984;9.838;2024-02-26T05:44:17;98872.00;;;2.80
75822;BMP180;64454;51.984;9.838;2024-02-26T05:46:44;98865.00;;;3.10
75822;BMP180;64454;51.984;9.838;2024-02-26T05:49:10;98878.00;;;3.40
75822;BMP180;64454;51.984;9.838;2024-02-26T05:51:36;98880.00;;;3.00
75822;BMP180;64454;51.984;9.838;2024-02-26T05:54:02;98887.00;;;3.10
75822;BMP180;64454;51.984;9.838;2024-02-26T05:56:29;98884.00;;;2.90
75822;BMP180;64454;51.984;9.838;2024-02-26T05:58:55;98890.00;;;2.80
75822;BMP180;64454;51.984;9.838;2024-02-26T06:01:21;98898.00;;;3.00
75822;BMP180;64454;51.984;9.838;2024-02-26T06:03:48;98891.00;;;3.20
75822;BMP180;64454;51.984;9.838;2024-02-26T06:06:14;98905.00;;;3.10
75822;BMP180;64454;51.984;9.838;2024-02-26T06:08:40;98908.00;;;3.10
75822;BMP180;64454;51.984;9.838;2024-02-26T06:11:07;98904.00;;;3.50
75822;BMP180;64454;51.984;9.838;2024-02-26T06:13:33;98904.00;;;3.60
75822;BMP180;64454;51.984;9.838;2024-02-26T06:15:59;98902.00;;;3.80
75822;BMP180;64454;51.984;9.838;2024-02-26T06:18:25;98910.00;;;3.70
75822;BMP180;64454;51.984;9.838;2024-02-26T06:20:52;98906.00;;;3.70
75822;BMP180;64454;51.984;9.838;2024-02-26T06:23:18;98905.00;;;3.80
75822;BMP180;64454;51.984;9.838;2024-02-26T06:25:44;98899.00;;;3.90
75822;BMP180;64454;51.984;9.838;2024-02-26T06:28:12;98914.00;;;3.50
75822;BMP180;64454;51.984;9.838;2024-02-26T06:30:38;98925.00;;;3.50
75822;BMP180;64454;51.984;9.838;2024-02-26T06:33:04;98923.00;;;3.50
75822;BMP180;64454;51.984;9.838;2024-02-26T06:35:31;98937.00;;;3.50
75822;BMP180;64454;51.984;9.838;2024-02-26T06:37:58;98935.00;;;3.60
75822;BMP180;64454;51.984;9.838;2024-02-26T06:40:24;98936.00;;;4.00
75822;BMP180;64454;51.984;9.838;2024-02-26T06:42:51;98938.00;;;3.40
75822;BMP180;64454;51.984;9.838;2024-02-26T06:45:17;98948.00;;;3.70
75822;BMP180;64454;51.984;9.838;2024-02-26T06:47:43;98947.00;;;3.90
75822;BMP180;64454;51.984;9.838;2024-02-26T06:50:12;98944.00;;;4.10
75822;BMP180;64454;51.984;9.838;2024-02-26T06:52:38;98950.00;;;3.80
75822;BMP180;64454;51.984;9.838;2024-02-26T06:55:05;98953.00;;;3.80
75822;BMP180;64454;51.984;9.838;2024-02-26T06:57:34;98947.00;;;3.90
75822;BMP180;64454;51.984;9.838;2024-02-26T07:00:00;98951.00;;;4.10
75822;BMP180;64454;51.984;9.838;2024-02-26T07:02:26;98940.00;;;4.10
75822;BMP180;64454;51.984;9.838;2024-02-26T07:04:52;98945.00;;;4.00
75822;BMP180;64454;51.984;9.838;2024-02-26T07:07:18;98951.00;;;3.90
75822;BMP180;64454;51.984;9.838;2024-02-26T07:09:44;98951.00;;;3.80
75822;BMP180;64454;51.984;9.838;2024-02-26T07:12:11;98955.00;;;4.00
75822;BMP180;64454;51.984;9.838;2024-02-26T07:14:37;98958.00;;;4.20
75822;BMP180;64454;51.984;9.838;2024-02-26T07:17:03;98954.00;;;4.10
75822;BMP180;64454;51.984;9.838;2024-02-26T07:19:29;98951.00;;;4.10
75822;BMP180;64454;51.984;9.838;2024-02-26T07:21:55;98952.00;;;4.20
75822;BMP180;64454;51.984;9.838;2024-02-26T07:24:22;98959.00;;;3.90
75822;BMP180;64454;51.984;9.838;2024-02-26T07:26:48;98951.00;;;4.00
75822;BMP180;64454;51.984;9.838;2024-02-26T07:29:14;98954.00;;;4.10
75822;BMP180;64454;51.984;9.838;2024-02-26T07:31:40;98951.00;;;4.10
75822;BMP180;64454;51.984;9.838;2024-02-26T07:34:06;98943.00;;;4.50
75822;BMP180;64454;51.984;9.838;2024-02-26T07:36:33;98940.00;;;4.10
75822;BMP180;64454;51.984;9.838;2024-02-26T07:38:59;98936.00;;;4.20
75822;BMP180;64454;51.984;9.838;2024-02-26T07:41:26;98940.00;;;4.20
75822;BMP180;64454;51.984;9.838;2024-02-26T07:43:52;98931.00;;;4.40
75822;BMP180;64454;51.984;9.838;2024-02-26T07:46:19;98929.00;;;4.40
75822;BMP180;64454;51.984;9.838;2024-02-26T07:48:45;98932.00;;;4.60
75822;BMP180;64454;51.984;9.838;2024-02-26T07:51:12;98930.00;;;4.80
75822;BMP180;64454;51.984;9.838;2024-02-26T07:53:39;98920.00;;;5.10
75822;BMP180;64454;51.984;9.838;2024-02-26T07:56:06;98918.00;;;4.90
75822;BMP180;64454;51.984;9.838;2024-02-26T07:58:33;98899.00;;;4.70
75822;BMP180;64454;51.984;9.838;2024-02-26T08:01:00;98891.00;;;5.20
75822;BMP180;64454;51.984;9.838;2024-02-26T08:03:27;98905.00;;;5.30
75822;BMP180;64454;51.984;9.838;2024-02-26T08:05:54;98895.00;;;5.60
75822;BMP180;64454;51.984;9.838;2024-02-26T08:08:20;98898.00;;;5.90
75822;BMP180;64454;51.984;9.838;2024-02-26T08:10:46;98890.00;;;5.90
75822;BMP180;64454;51.984;9.838;2024-02-26T08:13:12;98891.00;;;6.20
75822;BMP180;64454;51.984;9.838;2024-02-26T08:15:38;98894.00;;;6.40
75822;BMP180;64454;51.984;9.838;2024-02-26T08:18:05;98895.00;;;6.30
75822;BMP180;64454;51.984;9.838;2024-02-26T08:20:32;98891.00;;;6.40
75822;BMP180;64454;51.984;9.838;2024-02-26T08:22:58;98894.00;;;6.40
75822;BMP180;64454;51.984;9.838;2024-02-26T08:25:24;98897.00;;;6.40
75822;BMP180;64454;51.984;9.838;2024-02-26T08:27:51;98895.00;;;6.40
75822;BMP180;64454;51.984;9.838;2024-02-26T08:30:17;98902.00;;;6.40
75822;BMP180;64454;51.984;9.838;2024-02-26T08:32:43;98905.00;;;6.50
75822;BMP180;64454;51.984;9.838;2024-02-26T08:35:10;98909.00;;;6.30
75822;BMP180;64454;51.984;9.838;2024-02-26T08:37:36;98910.00;;;6.30
75822;BMP180;64454;51.984;9.838;2024-02-26T08:40:03;98919.00;;;6.50
75822;BMP180;64454;51.984;9.838;2024-02-26T08:42:30;98913.00;;;6.70
75822;BMP180;64454;51.984;9.838;2024-02-26T08:44:56;98923.00;;;6.60
75822;BMP180;64454;51.984;9.838;2024-02-26T08:47:22;98927.00;;;6.60
75822;BMP180;64454;51.984;9.838;2024-02-26T08:49:48;98940.00;;;6.70
75822;BMP180;64454;51.984;9.838;2024-02-26T08:52:15;98938.00;;;6.80
75822;BMP180;64454;51.984;9.838;2024-02-26T08:54:41;98945.00;;;6.80
75822;BMP180;64454;51.984;9.838;2024-02-26T08:57:07;98942.00;;;6.70
75822;BMP180;64454;51.984;9.838;2024-02-26T08:59:33;98941.00;;;6.70
75822;BMP180;64454;51.984;9.838;2024-02-26T09:01:59;98942.00;;;6.80
75822;BMP180;64454;51.984;9.838;2024-02-26T09:04:26;98950.00;;;6.90
75822;BMP180;64454;51.984;9.838;2024-02-26T09:06:52;98955.00;;;6.80
75822;BMP180;64454;51.984;9.838;2024-02-26T09:09:19;98952.00;;;6.90
75822;BMP180;64454;51.984;9.838;2024-02-26T09:11:46;98947.00;;;6.90
75822;BMP180;64454;51.984;9.838;2024-02-26T09:14:12;98950.00;;;7.00
75822;BMP180;64454;51.984;9.838;2024-02-26T09:16:38;98948.00;;;6.80
75822;BMP180;64454;51.984;9.838;2024-02-26T09:19:04;98957.00;;;6.80
75822;BMP180;64454;51.984;9.838;2024-02-26T09:21:30;98961.00;;;6.90
75822;BMP180;64454;51.984;9.838;2024-02-26T09:23:56;98968.00;;;6.90
75822;BMP180;64454;51.984;9.838;2024-02-26T09:26:22;98975.00;;;6.70
75822;BMP180;64454;51.984;9.838;2024-02-26T09:28:49;98981.00;;;6.70
75822;BMP180;64454;51.984;9.838;2024-02-26T09:31:17;98974.00;;;6.90
75822;BMP180;64454;51.984;9.838;2024-02-26T09:33:44;98976.00;;;7.10
75822;BMP180;64454;51.984;9.838;2024-02-26T09:36:10;98981.00;;;7.20
75822;BMP180;64454;51.984;9.838;2024-02-26T09:38:36;98975.00;;;7.20
75822;BMP180;64454;51.984;9.838;2024-02-26T09:41:04;98983.00;;;7.10
75822;BMP180;64454;51.984;9.838;2024-02-26T09:43:35;98983.00;;;7.20
75822;BMP180;64454;51.984;9.838;2024-02-26T09:46:03;98988.00;;;7.20
75822;BMP180;64454;51.984;9.838;2024-02-26T09:48:30;98991.00;;;7.10
75822;BMP180;64454;51.984;9.838;2024-02-26T09:50:57;98990.00;;;7.40
75822;BMP180;64454;51.984;9.838;2024-02-26T09:53:23;98993.00;;;7.30
75822;BMP180;64454;51.984;9.838;2024-02-26T09:55:49;98999.00;;;7.30
75822;BMP180;64454;51.984;9.838;2024-02-26T09:58:16;98988.00;;;7.60
75822;BMP180;64454;51.984;9.838;2024-02-26T10:00:51;98984.00;;;7.60
75822;BMP180;64454;51.984;9.838;2024-02-26T10:03:22;98977.00;;;7.60
75822;BMP180;64454;51.984;9.838;2024-02-26T10:05:51;98996.00;;;7.50
75822;BMP180;64454;51.984;9.838;2024-02-26T10:08:21;98980.00;;;7.60
75822;BMP180;64454;51.984;9.838;2024-02-26T10:10:48;98985.00;;;7.60
75822;BMP180;64454;51.984;9.838;2024-02-26T10:13:15;98982.00;;;7.60
75822;BMP180;64454;51.984;9.838;2024-02-26T10:15:41;98984.00;;;7.70
75822;BMP180;64454;51.984;9.838;2024-02-26T10:18:07;98991.00;;;7.70
75822;BMP180;64454;51.984;9.838;2024-02-26T10:20:34;98991.00;;;7.80
75822;BMP180;64454;51.984;9.838;2024-02-26T10:23:03;99005.00;;;7.90
75822;BMP180;64454;51.984;9.838;2024-02-26T10:25:29;99011.00;;;8.20
75822;BMP180;64454;51.984;9.838;2024-02-26T10:27:59;99008.00;;;8.40
75822;BMP180;64454;51.984;9.838;2024-02-26T10:30:28;99011.00;;;9.00
75822;BMP180;64454;51.984;9.838;2024-02-26T10:32:56;98999.00;;;9.00
75822;BMP180;64454;51.984;9.838;2024-02-26T10:35:22;99006.00;;;9.20
75822;BMP180;64454;51.984;9.838;2024-02-26T10:37:50;98999.00;;;9.30
75822;BMP180;64454;51.984;9.838;2024-02-26T10:40:16;99019.00;;;9.40
75822;BMP180;64454;51.984;9.838;2024-02-26T10:42:43;99020.00;;;9.30
75822;BMP180;64454;51.984;9.838;2024-02-26T10:45:11;99025.00;;;8.90
75822;BMP180;64454;51.984;9.838;2024-02-26T10:47:37;99020.00;;;8.60
75822;BMP180;64454;51.984;9.838;2024-02-26T10:50:06;99034.00;;;8.80
75822;BMP180;64454;51.984;9.838;2024-02-26T10:52:35;99029.00;;;8.80
75822;BMP180;64454;51.984;9.838;2024-02-26T10:55:04;99034.00;;;8.80
75822;BMP180;64454;51.984;9.838;2024-02-26T10:57:35;99030.00;;;9.00
75822;BMP180;64454;51.984;9.838;2024-02-26T11:00:04;99038.00;;;8.90
75822;BMP180;64454;51.984;9.838;2024-02-26T11:02:33;99047.00;;;8.80
75822;BMP180;64454;51.984;9.838;2024-02-26T11:05:02;99032.00;;;8.90
75822;BMP180;64454;51.984;9.838;2024-02-26T11:07:30;99043.00;;;8.60
75822;BMP180;64454;51.984;9.838;2024-02-26T11:09:59;99034.00;;;8.60
75822;BMP180;64454;51.984;9.838;2024-02-26T11:12:28;99047.00;;;8.50
75822;BMP180;64454;51.984;9.838;2024-02-26T11:14:55;99049.00;;;8.30
75822;BMP180;64454;51.984;9.838;2024-02-26T11:17:27;99053.00;;;8.30
75822;BMP180;64454;51.984;9.838;2024-02-26T11:19:56;99051.00;;;8.70
75822;BMP180;64454;51.984;9.838;2024-02-26T11:22:23;99062.00;;;9.00
75822;BMP180;64454;51.984;9.838;2024-02-26T11:24:52;99060.00;;;9.20
75822;BMP180;64454;51.984;9.838;2024-02-26T11:27:23;99054.00;;;9.40
75822;BMP180;64454;51.984;9.838;2024-02-26T11:29:54;99058.00;;;9.80
75822;BMP180;64454;51.984;9.838;2024-02-26T11:32:21;99067.00;;;9.40
75822;BMP180;64454;51.984;9.838;2024-02-26T11:34:47;99071.00;;;9.60
75822;BMP180;64454;51.984;9.838;2024-02-26T11:37:16;99068.00;;;9.50
75822;BMP180;64454;51.984;9.838;2024-02-26T11:39:45;99066.00;;;9.30
75822;BMP180;64454;51.984;9.838;2024-02-26T11:42:15;99067.00;;;9.70
75822;BMP180;64454;51.984;9.838;2024-02-26T11:44:41;99066.00;;;9.60
75822;BMP180;64454;51.984;9.838;2024-02-26T11:47:12;99062.00;;;9.90
75822;BMP180;64454;51.984;9.838;2024-02-26T11:49:38;99051.00;;;10.00
75822;BMP180;64454;51.984;9.838;2024-02-26T11:52:07;99052.00;;;10.00
75822;BMP180;64454;51.984;9.838;2024-02-26T11:54:45;99059.00;;;9.80
75822;BMP180;64454;51.984;9.838;2024-02-26T11:57:28;99060.00;;;10.40
75822;BMP180;64454;51.984;9.838;2024-02-26T11:59:54;99063.00;;;10.30
75822;BMP180;64454;51.984;9.838;2024-02-26T12:02:46;99073.00;;;10.00
75822;BMP180;64454;51.984;9.838;2024-02-26T12:05:15;99069.00;;;10.10
75822;BMP180;64454;51.984;9.838;2024-02-26T12:07:47;99054.00;;;10.30
75822;BMP180;64454;51.984;9.838;2024-02-26T12:10:22;99066.00;;;10.30
75822;BMP180;64454;51.984;9.838;2024-02-26T12:12:54;99060.00;;;10.60
75822;BMP180;64454;51.984;9.838;2024-02-26T12:15:23;99057.00;;;10.30
75822;BMP180;64454;51.984;9.838;2024-02-26T12:17:51;99064.00;;;10.70
75822;BMP180;64454;51.984;9.838;2024-02-26T12:20:18;99071.00;;;10.20
75822;BMP180;64454;51.984;9.838;2024-02-26T12:22:46;99062.00;;;10.00
75822;BMP180;64454;51.984;9.838;2024-02-26T12:25:13;99063.00;;;10.40
75822;BMP180;64454;51.984;9.838;2024-02-26T12:27:40;99065.00;;;10.20
75822;BMP180;64454;51.984;9.838;2024-02-26T12:30:07;99065.00;;;9.60
75822;BMP180;64454;51.984;9.838;2024-02-26T12:32:35;99076.00;;;9.90
75822;BMP180;64454;51.984;9.838;2024-02-26T12:35:01;99067.00;;;9.90
75822;BMP180;64454;51.984;9.838;2024-02-26T12:37:28;99063.00;;;9.70
75822;BMP180;64454;51.984;9.838;2024-02-26T12:39:54;99068.00;;;9.80
75822;BMP180;64454;51.984;9.838;2024-02-26T12:42:21;99060.00;;;9.80
75822;BMP180;64454;51.984;9.838;2024-02-26T12:44:47;99061.00;;;9.30
75822;BMP180;64454;51.984;9.838;2024-02-26T12:47:13;99049.00;;;9.20
75822;BMP180;64454;51.984;9.838;2024-02-26T12:49:42;99072.00;;;9.10
75822;BMP180;64454;51.984;9.838;2024-02-26T12:52:10;99067.00;;;8.90
75822;BMP180;64454;51.984;9.838;2024-02-26T12:54:36;99079.00;;;9.20
75822;BMP180;64454;51.984;9.838;2024-02-26T12:57:05;99085.00;;;9.30
75822;BMP180;64454;51.984;9.838;2024-02-26T12:59:34;99093.00;;;9.30
75822;BMP180;64454;51.984;9.838;2024-02-26T13:02:01;99104.00;;;9.40
75822;BMP180;64454;51.984;9.838;2024-02-26T13:04:29;99112.00;;;9.10
75822;BMP180;64454;51.984;9.838;2024-02-26T13:06:56;99116.00;;;9.10
75822;BMP180;64454;51.984;9.838;2024-02-26T13:09:26;99121.00;;;9.00
75822;BMP180;64454;51.984;9.838;2024-02-26T13:11:53;99121.00;;;9.10
75822;BMP180;64454;51.984;9.838;2024-02-26T13:14:20;99118.00;;;9.30
75822;BMP180;64454;51.984;9.838;2024-02-26T13:16:55;99119.00;;;9.20
75822;BMP180;64454;51.984;9.838;2024-02-26T13:19:21;99123.00;;;9.30
75822;BMP180;64454;51.984;9.838;2024-02-26T13:21:47;99131.00;;;9.20
75822;BMP180;64454;51.984;9.838;2024-02-26T13:24:13;99132.00;;;9.50
75822;BMP180;64454;51.984;9.838;2024-02-26T13:26:40;99128.00;;;9.30
75822;BMP180;64454;51.984;9.838;2024-02-26T13:29:07;99122.00;;;9.30
75822;BMP180;64454;51.984;9.838;2024-02-26T13:31:39;99138.00;;;9.40
75822;BMP180;64454;51.984;9.838;2024-02-26T13:34:05;99125.00;;;9.10
75822;BMP180;64454;51.984;9.838;2024-02-26T13:36:32;99125.00;;;9.10
75822;BMP180;64454;51.984;9.838;2024-02-26T13:38:58;99124.00;;;9.10
75822;BMP180;64454;51.984;9.838;2024-02-26T13:41:24;99133.00;;;9.10
75822;BMP180;64454;51.984;9.838;2024-02-26T13:43:51;99124.00;;;9.40
75822;BMP180;64454;51.984;9.838;2024-02-26T13:46:17;99130.00;;;9.20
75822;BMP180;64454;51.984;9.838;2024-02-26T13:48:43;99135.00;;;9.20
75822;BMP180;64454;51.984;9.838;2024-02-26T13:51:10;99140.00;;;9.20
75822;BMP180;64454;51.984;9.838;2024-02-26T13:53:36;99147.00;;;9.30
75822;BMP180;64454;51.984;9.838;2024-02-26T13:56:02;99155.00;;;9.10
75822;BMP180;64454;51.984;9.838;2024-02-26T13:58:31;99159.00;;;9.40
75822;BMP180;64454;51.984;9.838;2024-02-26T14:00:57;99144.00;;;9.30
75822;BMP180;64454;51.984;9.838;2024-02-26T14:03:25;99149.00;;;9.40
75822;BMP180;64454;51.984;9.838;2024-02-26T14:05:51;99147.00;;;9.50
75822;BMP180;64454;51.984;9.838;2024-02-26T14:08:18;99153.00;;;9.30
75822;BMP180;64454;51.984;9.838;2024-02-26T14:10:44;99157.00;;;9.40
75822;BMP180;64454;51.984;9.838;2024-02-26T14:13:10;99153.00;;;9.60
75822;BMP180;64454;51.984;9.838;2024-02-26T14:15:36;99161.00;;;9.20
75822;BMP180;64454;51.984;9.838;2024-02-26T14:18:05;99163.00;;;9.30
75822;BMP180;64454;51.984;9.838;2024-02-26T14:20:31;99168.00;;;9.30